sensor_id;sensor_type;location;lat;lon;timestamp;P1;durP1;ratioP1;P2;durP2;ratioP2
32876;SDS011;19226;51.600;8.034;2023-06-10T00:01:39;8.35;;;6.93;;
32876;SDS011;19226;51.600;8.034;2023-06-10T00:04:24;7.38;;;6.68;;
32876;SDS011;19226;51.600;8.034;2023-06-10T00:07:09;10.75;;;6.50;;
32876;SDS011;19226;51.600;8.034;2023-06-10T00:09:54;8.10;;;7.30;;
32876;SDS011;19226;51.600;8.034;2023-06-10T00:12:39;8.95;;;7.35;;
32876;SDS011;19226;51.600;8.034;2023-06-10T00:15:24;11.13;;;7.18;;
32876;SDS011;19226;51.600;8.034;2023-06-10T00:18:08;14.10;;;7.60;;
32876;SDS011;19226;51.600;8.034;2023-06-10T00:20:53;14.98;;;7.43;;
32876;SDS011;19226;51.600;8.034;2023-06-10T00:23:39;8.25;;;7.45;;
32876;SDS011;19226;51.600;8.034;2023-06-10T00:26:24;10.05;;;7.88;;
32876;SDS011;19226;51.600;8.034;2023-06-10T00:29:09;8.98;;;7.63;;
32876;SDS011;19226;51.600;8.034;2023-06-10T00:31:54;12.05;;;7.95;;
32876;SDS011;19226;51.600;8.034;2023-06-10T00:34:41;10.90;;;8.07;;
32876;SDS011;19226;51.600;8.034;2023-06-10T00:37:25;12.10;;;8.23;;
32876;SDS011;19226;51.600;8.034;2023-06-10T00:40:11;14.88;;;8.20;;
32876;SDS011;19226;51.600;8.034;2023-06-10T00:42:56;9.32;;;8.13;;
32876;SDS011;19226;51.600;8.034;2023-06-10T00:45:40;10.98;;;8.38;;
32876;SDS011;19226;51.600;8.034;2023-06-10T00:48:25;10.07;;;8.10;;
32876;SDS011;19226;51.600;8.034;2023-06-10T00:51:10;11.75;;;7.75;;
32876;SDS011;19226;51.600;8.034;2023-06-10T00:53:55;9.63;;;8.70;;
32876;SDS011;19226;51.600;8.034;2023-06-10T00:56:40;9.90;;;8.20;;
32876;SDS011;19226;51.600;8.034;2023-06-10T00:59:30;10.98;;;9.23;;
32876;SDS011;19226;51.600;8.034;2023-06-10T01:02:15;14.57;;;8.70;;
32876;SDS011;19226;51.600;8.034;2023-06-10T01:05:00;10.63;;;8.77;;
32876;SDS011;19226;51.600;8.034;2023-06-10T01:10:50;10.45;;;8.70;;
32876;SDS011;19226;51.600;8.034;2023-06-10T01:13:39;13.18;;;9.77;;
32876;SDS011;19226;51.600;8.034;2023-06-10T01:16:25;10.30;;;9.23;;
32876;SDS011;19226;51.600;8.034;2023-06-10T01:19:10;16.17;;;9.60;;
32876;SDS011;19226;51.600;8.034;2023-06-10T01:21:57;15.75;;;9.82;;
32876;SDS011;19226;51.600;8.034;2023-06-10T01:24:44;15.55;;;9.73;;
32876;SDS011;19226;51.600;8.034;2023-06-10T01:27:29;13.95;;;9.73;;
32876;SDS011;19226;51.600;8.034;2023-06-10T01:30:18;12.52;;;9.77;;
32876;SDS011;19226;51.600;8.034;2023-06-10T01:33:07;13.93;;;10.60;;
32876;SDS011;19226;51.600;8.034;2023-06-10T01:35:53;12.55;;;10.10;;
32876;SDS011;19226;51.600;8.034;2023-06-10T01:38:41;15.15;;;10.40;;
32876;SDS011;19226;51.600;8.034;2023-06-10T01:41:27;11.15;;;9.48;;
32876;SDS011;19226;51.600;8.034;2023-06-10T01:44:16;15.90;;;10.80;;
32876;SDS011;19226;51.600;8.034;2023-06-10T01:47:02;13.05;;;10.18;;
32876;SDS011;19226;51.600;8.034;2023-06-10T01:49:47;15.20;;;11.10;;
32876;SDS011;19226;51.600;8.034;2023-06-10T01:52:32;14.13;;;11.13;;
32876;SDS011;19226;51.600;8.034;2023-06-10T01:55:16;12.25;;;10.23;;
32876;SDS011;19226;51.600;8.034;2023-06-10T01:58:02;13.55;;;11.13;;
32876;SDS011;19226;51.600;8.034;2023-06-10T02:00:47;18.73;;;11.10;;
32876;SDS011;19226;51.600;8.034;2023-06-10T02:03:31;18.23;;;11.43;;
32876;SDS011;19226;51.600;8.034;2023-06-10T02:06:16;14.80;;;10.77;;
32876;SDS011;19226;51.600;8.034;2023-06-10T02:09:01;15.40;;;11.18;;
32876;SDS011;19226;51.600;8.034;2023-06-10T02:11:47;12.18;;;10.50;;
32876;SDS011;19226;51.600;8.034;2023-06-10T02:14:32;15.75;;;10.95;;
32876;SDS011;19226;51.600;8.034;2023-06-10T02:17:17;10.52;;;9.20;;
32876;SDS011;19226;51.600;8.034;2023-06-10T02:20:02;14.75;;;10.85;;
32876;SDS011;19226;51.600;8.034;2023-06-10T02:22:50;12.25;;;9.93;;
32876;SDS011;19226;51.600;8.034;2023-06-10T02:25:34;12.80;;;10.20;;
32876;SDS011;19226;51.600;8.034;2023-06-10T02:28:19;17.67;;;10.60;;
32876;SDS011;19226;51.600;8.034;2023-06-10T02:31:03;13.52;;;11.07;;
32876;SDS011;19226;51.600;8.034;2023-06-10T02:33:48;17.00;;;10.93;;
32876;SDS011;19226;51.600;8.034;2023-06-10T02:36:33;17.95;;;11.10;;
32876;SDS011;19226;51.600;8.034;2023-06-10T02:39:19;11.80;;;10.05;;
32876;SDS011;19226;51.600;8.034;2023-06-10T02:42:05;14.57;;;11.20;;
32876;SDS011;19226;51.600;8.034;2023-06-10T02:44:51;15.23;;;11.45;;
32876;SDS011;19226;51.600;8.034;2023-06-10T02:47:46;15.60;;;11.88;;
32876;SDS011;19226;51.600;8.034;2023-06-10T02:50:31;15.27;;;11.43;;
32876;SDS011;19226;51.600;8.034;2023-06-10T02:53:30;20.13;;;11.35;;
32876;SDS011;19226;51.600;8.034;2023-06-10T02:56:22;12.23;;;10.63;;
32876;SDS011;19226;51.600;8.034;2023-06-10T02:59:07;12.95;;;10.73;;
32876;SDS011;19226;51.600;8.034;2023-06-10T03:01:52;13.00;;;10.13;;
32876;SDS011;19226;51.600;8.034;2023-06-10T03:04:37;11.95;;;9.57;;
32876;SDS011;19226;51.600;8.034;2023-06-10T03:07:27;14.63;;;9.35;;
32876;SDS011;19226;51.600;8.034;2023-06-10T03:10:12;12.93;;;9.07;;
32876;SDS011;19226;51.600;8.034;2023-06-10T03:12:58;13.25;;;8.93;;
32876;SDS011;19226;51.600;8.034;2023-06-10T03:15:43;13.80;;;8.95;;
32876;SDS011;19226;51.600;8.034;2023-06-10T03:21:17;11.07;;;8.57;;
32876;SDS011;19226;51.600;8.034;2023-06-10T03:24:01;18.65;;;9.25;;
32876;SDS011;19226;51.600;8.034;2023-06-10T03:26:46;16.58;;;9.52;;
32876;SDS011;19226;51.600;8.034;2023-06-10T03:29:32;17.80;;;10.40;;
32876;SDS011;19226;51.600;8.034;2023-06-10T03:32:17;11.68;;;9.80;;
32876;SDS011;19226;51.600;8.034;2023-06-10T03:35:01;14.32;;;9.35;;
32876;SDS011;19226;51.600;8.034;2023-06-10T03:37:48;13.13;;;9.68;;
32876;SDS011;19226;51.600;8.034;2023-06-10T03:40:33;11.38;;;9.27;;
32876;SDS011;19226;51.600;8.034;2023-06-10T03:43:18;11.85;;;9.60;;
32876;SDS011;19226;51.600;8.034;2023-06-10T03:46:02;14.85;;;10.00;;
32876;SDS011;19226;51.600;8.034;2023-06-10T03:48:47;12.43;;;9.07;;
32876;SDS011;19226;51.600;8.034;2023-06-10T03:51:33;9.80;;;8.82;;
32876;SDS011;19226;51.600;8.034;2023-06-10T03:54:17;17.30;;;9.93;;
32876;SDS011;19226;51.600;8.034;2023-06-10T03:57:02;13.82;;;9.10;;
32876;SDS011;19226;51.600;8.034;2023-06-10T03:59:48;12.95;;;9.60;;
32876;SDS011;19226;51.600;8.034;2023-06-10T04:02:32;13.63;;;9.77;;
32876;SDS011;19226;51.600;8.034;2023-06-10T04:05:19;13.32;;;10.07;;
32876;SDS011;19226;51.600;8.034;2023-06-10T04:08:05;11.82;;;9.60;;
32876;SDS011;19226;51.600;8.034;2023-06-10T04:10:50;14.68;;;10.05;;
32876;SDS011;19226;51.600;8.034;2023-06-10T04:13:35;18.48;;;11.20;;
32876;SDS011;19226;51.600;8.034;2023-06-10T04:16:20;13.95;;;10.15;;
32876;SDS011;19226;51.600;8.034;2023-06-10T04:19:06;13.48;;;9.80;;
32876;SDS011;19226;51.600;8.034;2023-06-10T04:21:50;10.63;;;9.50;;
32876;SDS011;19226;51.600;8.034;2023-06-10T04:24:35;14.35;;;10.25;;
32876;SDS011;19226;51.600;8.034;2023-06-10T04:27:20;21.63;;;10.82;;
32876;SDS011;19226;51.600;8.034;2023-06-10T04:30:05;10.30;;;8.95;;
32876;SDS011;19226;51.600;8.034;2023-06-10T04:32:52;12.27;;;9.93;;
32876;SDS011;19226;51.600;8.034;2023-06-10T04:35:36;13.90;;;9.45;;
32876;SDS011;19226;51.600;8.034;2023-06-10T04:38:24;17.88;;;9.60;;
32876;SDS011;19226;51.600;8.034;2023-06-10T04:41:08;14.95;;;10.07;;
32876;SDS011;19226;51.600;8.034;2023-06-10T04:43:54;15.70;;;9.68;;
32876;SDS011;19226;51.600;8.034;2023-06-10T04:46:39;13.93;;;9.20;;
32876;SDS011;19226;51.600;8.034;2023-06-10T04:49:23;19.38;;;9.65;;
32876;SDS011;19226;51.600;8.034;2023-06-10T04:52:08;14.60;;;8.85;;
32876;SDS011;19226;51.600;8.034;2023-06-10T04:54:57;13.60;;;8.95;;
32876;SDS011;19226;51.600;8.034;2023-06-10T04:57:42;13.60;;;9.35;;
32876;SDS011;19226;51.600;8.034;2023-06-10T05:00:26;14.43;;;8.93;;
32876;SDS011;19226;51.600;8.034;2023-06-10T05:03:11;12.65;;;9.32;;
32876;SDS011;19226;51.600;8.034;2023-06-10T05:05:55;9.73;;;7.68;;
32876;SDS011;19226;51.600;8.034;2023-06-10T05:08:39;12.73;;;7.90;;
32876;SDS011;19226;51.600;8.034;2023-06-10T05:11:24;13.73;;;7.70;;
32876;SDS011;19226;51.600;8.034;2023-06-10T05:14:08;12.65;;;8.27;;
32876;SDS011;19226;51.600;8.034;2023-06-10T05:16:53;12.20;;;8.25;;
32876;SDS011;19226;51.600;8.034;2023-06-10T05:19:38;12.48;;;7.80;;
32876;SDS011;19226;51.600;8.034;2023-06-10T05:22:22;10.02;;;7.60;;
32876;SDS011;19226;51.600;8.034;2023-06-10T05:25:09;10.68;;;7.75;;
32876;SDS011;19226;51.600;8.034;2023-06-10T05:27:54;10.88;;;7.75;;
32876;SDS011;19226;51.600;8.034;2023-06-10T05:30:38;10.90;;;7.53;;
32876;SDS011;19226;51.600;8.034;2023-06-10T05:33:23;13.25;;;7.00;;
32876;SDS011;19226;51.600;8.034;2023-06-10T05:36:07;11.35;;;7.03;;
32876;SDS011;19226;51.600;8.034;2023-06-10T05:38:52;7.05;;;6.28;;
32876;SDS011;19226;51.600;8.034;2023-06-10T05:41:36;12.07;;;6.88;;
32876;SDS011;19226;51.600;8.034;2023-06-10T05:44:21;14.00;;;6.50;;
32876;SDS011;19226;51.600;8.034;2023-06-10T05:47:06;12.43;;;6.10;;
32876;SDS011;19226;51.600;8.034;2023-06-10T05:49:50;8.63;;;5.65;;
32876;SDS011;19226;51.600;8.034;2023-06-10T05:52:35;7.93;;;5.97;;
32876;SDS011;19226;51.600;8.034;2023-06-10T05:55:20;7.55;;;5.82;;
32876;SDS011;19226;51.600;8.034;2023-06-10T05:58:05;11.18;;;5.50;;
32876;SDS011;19226;51.600;8.034;2023-06-10T06:00:49;10.15;;;5.35;;
32876;SDS011;19226;51.600;8.034;2023-06-10T06:03:34;10.45;;;5.30;;
32876;SDS011;19226;51.600;8.034;2023-06-10T06:06:18;7.43;;;5.63;;
32876;SDS011;19226;51.600;8.034;2023-06-10T06:09:04;5.60;;;4.95;;
32876;SDS011;19226;51.600;8.034;2023-06-10T06:11:49;6.18;;;5.13;;
32876;SDS011;19226;51.600;8.034;2023-06-10T06:14:36;5.07;;;4.57;;
32876;SDS011;19226;51.600;8.034;2023-06-10T06:20:07;12.23;;;5.38;;
32876;SDS011;19226;51.600;8.034;2023-06-10T06:22:51;6.50;;;5.18;;
32876;SDS011;19226;51.600;8.034;2023-06-10T06:25:36;7.40;;;4.78;;
32876;SDS011;19226;51.600;8.034;2023-06-10T06:28:22;9.82;;;4.90;;
32876;SDS011;19226;51.600;8.034;2023-06-10T06:31:07;4.80;;;4.28;;
32876;SDS011;19226;51.600;8.034;2023-06-10T06:33:51;8.95;;;4.60;;
32876;SDS011;19226;51.600;8.034;2023-06-10T06:36:36;6.53;;;4.53;;
32876;SDS011;19226;51.600;8.034;2023-06-10T06:39:20;4.85;;;4.35;;
32876;SDS011;19226;51.600;8.034;2023-06-10T06:42:05;7.28;;;3.95;;
32876;SDS011;19226;51.600;8.034;2023-06-10T06:45:19;15.73;;;4.35;;
32876;SDS011;19226;51.600;8.034;2023-06-10T06:48:04;12.02;;;4.30;;
32876;SDS011;19226;51.600;8.034;2023-06-10T06:50:49;8.23;;;4.35;;
32876;SDS011;19226;51.600;8.034;2023-06-10T06:53:33;4.32;;;3.92;;
32876;SDS011;19226;51.600;8.034;2023-06-10T06:56:20;14.60;;;4.28;;
32876;SDS011;19226;51.600;8.034;2023-06-10T06:59:05;4.55;;;4.03;;
32876;SDS011;19226;51.600;8.034;2023-06-10T07:01:49;6.70;;;3.65;;
32876;SDS011;19226;51.600;8.034;2023-06-10T07:04:34;7.20;;;4.60;;
32876;SDS011;19226;51.600;8.034;2023-06-10T07:07:18;8.68;;;4.38;;
32876;SDS011;19226;51.600;8.034;2023-06-10T07:10:03;11.40;;;4.53;;
32876;SDS011;19226;51.600;8.034;2023-06-10T07:12:48;10.15;;;4.47;;
32876;SDS011;19226;51.600;8.034;2023-06-10T07:15:32;4.68;;;4.05;;
32876;SDS011;19226;51.600;8.034;2023-06-10T07:18:17;8.00;;;3.95;;
32876;SDS011;19226;51.600;8.034;2023-06-10T07:21:01;6.75;;;4.00;;
32876;SDS011;19226;51.600;8.034;2023-06-10T07:23:46;11.07;;;4.32;;
32876;SDS011;19226;51.600;8.034;2023-06-10T07:26:30;5.18;;;4.10;;
32876;SDS011;19226;51.600;8.034;2023-06-10T07:29:15;5.45;;;4.20;;
32876;SDS011;19226;51.600;8.034;2023-06-10T07:32:00;11.13;;;4.28;;
32876;SDS011;19226;51.600;8.034;2023-06-10T07:34:44;7.47;;;4.03;;
32876;SDS011;19226;51.600;8.034;2023-06-10T07:37:28;9.63;;;3.42;;
32876;SDS011;19226;51.600;8.034;2023-06-10T07:40:13;5.63;;;3.28;;
32876;SDS011;19226;51.600;8.034;2023-06-10T07:42:57;6.32;;;3.75;;
32876;SDS011;19226;51.600;8.034;2023-06-10T07:45:43;4.38;;;3.28;;
32876;SDS011;19226;51.600;8.034;2023-06-10T07:48:28;7.00;;;3.15;;
32876;SDS011;19226;51.600;8.034;2023-06-10T07:51:12;5.25;;;3.47;;
32876;SDS011;19226;51.600;8.034;2023-06-10T07:53:57;8.02;;;3.20;;
32876;SDS011;19226;51.600;8.034;2023-06-10T07:56:41;8.40;;;3.55;;
32876;SDS011;19226;51.600;8.034;2023-06-10T07:59:26;8.35;;;3.80;;
32876;SDS011;19226;51.600;8.034;2023-06-10T08:02:11;4.07;;;2.90;;
32876;SDS011;19226;51.600;8.034;2023-06-10T08:04:55;7.07;;;2.85;;
32876;SDS011;19226;51.600;8.034;2023-06-10T08:07:40;4.78;;;3.00;;
32876;SDS011;19226;51.600;8.034;2023-06-10T08:10:25;4.50;;;3.22;;
32876;SDS011;19226;51.600;8.034;2023-06-10T08:13:09;4.50;;;3.00;;
32876;SDS011;19226;51.600;8.034;2023-06-10T08:15:54;3.75;;;2.92;;
32876;SDS011;19226;51.600;8.034;2023-06-10T08:18:42;5.45;;;2.80;;
32876;SDS011;19226;51.600;8.034;2023-06-10T08:21:26;4.22;;;3.05;;
32876;SDS011;19226;51.600;8.034;2023-06-10T08:24:12;5.22;;;2.70;;
32876;SDS011;19226;51.600;8.034;2023-06-10T08:26:58;8.70;;;2.78;;
32876;SDS011;19226;51.600;8.034;2023-06-10T08:29:43;8.80;;;3.60;;
32876;SDS011;19226;51.600;8.034;2023-06-10T08:32:29;5.25;;;2.95;;
32876;SDS011;19226;51.600;8.034;2023-06-10T08:35:14;8.20;;;2.88;;
32876;SDS011;19226;51.600;8.034;2023-06-10T08:37:58;5.10;;;2.95;;
32876;SDS011;19226;51.600;8.034;2023-06-10T08:40:43;63.00;;;9.32;;
32876;SDS011;19226;51.600;8.034;2023-06-10T08:43:32;35.17;;;6.00;;
32876;SDS011;19226;51.600;8.034;2023-06-10T08:46:20;13.52;;;3.50;;
32876;SDS011;19226;51.600;8.034;2023-06-10T08:49:05;5.90;;;3.28;;
32876;SDS011;19226;51.600;8.034;2023-06-10T08:51:51;5.30;;;2.83;;
32876;SDS011;19226;51.600;8.034;2023-06-10T08:54:52;5.50;;;3.30;;
32876;SDS011;19226;51.600;8.034;2023-06-10T08:57:47;4.75;;;3.38;;
32876;SDS011;19226;51.600;8.034;2023-06-10T09:00:32;5.88;;;3.40;;
32876;SDS011;19226;51.600;8.034;2023-06-10T09:03:19;8.02;;;3.33;;
32876;SDS011;19226;51.600;8.034;2023-06-10T09:06:04;10.18;;;2.88;;
32876;SDS011;19226;51.600;8.034;2023-06-10T09:08:49;14.13;;;3.47;;
32876;SDS011;19226;51.600;8.034;2023-06-10T09:11:34;4.03;;;3.25;;
32876;SDS011;19226;51.600;8.034;2023-06-10T09:14:20;7.47;;;3.10;;
32876;SDS011;19226;51.600;8.034;2023-06-10T09:17:05;5.30;;;2.88;;
32876;SDS011;19226;51.600;8.034;2023-06-10T09:19:51;6.80;;;3.38;;
32876;SDS011;19226;51.600;8.034;2023-06-10T09:22:40;5.57;;;3.00;;
32876;SDS011;19226;51.600;8.034;2023-06-10T09:25:36;5.15;;;3.17;;
32876;SDS011;19226;51.600;8.034;2023-06-10T09:28:21;5.93;;;3.17;;
32876;SDS011;19226;51.600;8.034;2023-06-10T09:31:06;7.65;;;3.63;;
32876;SDS011;19226;51.600;8.034;2023-06-10T09:33:50;6.28;;;3.97;;
32876;SDS011;19226;51.600;8.034;2023-06-10T09:36:35;7.30;;;3.30;;
32876;SDS011;19226;51.600;8.034;2023-06-10T09:39:20;7.05;;;3.15;;
32876;SDS011;19226;51.600;8.034;2023-06-10T09:42:17;7.65;;;2.95;;
32876;SDS011;19226;51.600;8.034;2023-06-10T09:45:02;9.68;;;3.65;;
32876;SDS011;19226;51.600;8.034;2023-06-10T09:47:51;5.75;;;3.22;;
32876;SDS011;19226;51.600;8.034;2023-06-10T09:50:46;7.32;;;3.90;;
32876;SDS011;19226;51.600;8.034;2023-06-10T09:53:33;6.13;;;3.13;;
32876;SDS011;19226;51.600;8.034;2023-06-10T09:56:32;7.22;;;3.78;;
32876;SDS011;19226;51.600;8.034;2023-06-10T09:59:30;6.03;;;3.80;;
32876;SDS011;19226;51.600;8.034;2023-06-10T10:02:18;7.47;;;3.50;;
32876;SDS011;19226;51.600;8.034;2023-06-10T10:05:03;4.43;;;3.00;;
32876;SDS011;19226;51.600;8.034;2023-06-10T10:07:50;9.43;;;3.23;;
32876;SDS011;19226;51.600;8.034;2023-06-10T10:10:35;4.70;;;3.50;;
32876;SDS011;19226;51.600;8.034;2023-06-10T10:13:20;6.65;;;2.90;;
32876;SDS011;19226;51.600;8.034;2023-06-10T10:16:06;3.28;;;2.97;;
32876;SDS011;19226;51.600;8.034;2023-06-10T10:18:56;5.28;;;3.35;;
32876;SDS011;19226;51.600;8.034;2023-06-10T10:21:56;6.13;;;3.15;;
32876;SDS011;19226;51.600;8.034;2023-06-10T10:24:50;7.50;;;3.17;;
32876;SDS011;19226;51.600;8.034;2023-06-10T10:30:30;3.70;;;2.90;;
32876;SDS011;19226;51.600;8.034;2023-06-10T10:36:29;8.10;;;3.40;;
32876;SDS011;19226;51.600;8.034;2023-06-10T10:39:14;7.40;;;3.38;;
32876;SDS011;19226;51.600;8.034;2023-06-10T10:41:59;5.65;;;3.47;;
32876;SDS011;19226;51.600;8.034;2023-06-10T10:44:47;3.30;;;2.78;;
32876;SDS011;19226;51.600;8.034;2023-06-10T10:47:32;4.75;;;2.78;;
32876;SDS011;19226;51.600;8.034;2023-06-10T10:50:19;3.35;;;3.05;;
32876;SDS011;19226;51.600;8.034;2023-06-10T10:53:05;3.33;;;2.90;;
32876;SDS011;19226;51.600;8.034;2023-06-10T10:59:02;4.25;;;3.40;;
32876;SDS011;19226;51.600;8.034;2023-06-10T11:01:48;16.83;;;3.90;;
32876;SDS011;19226;51.600;8.034;2023-06-10T11:04:33;8.63;;;3.35;;
32876;SDS011;19226;51.600;8.034;2023-06-10T11:07:20;4.18;;;3.20;;
32876;SDS011;19226;51.600;8.034;2023-06-10T11:10:12;4.35;;;2.80;;
32876;SDS011;19226;51.600;8.034;2023-06-10T11:12:57;8.25;;;3.45;;
32876;SDS011;19226;51.600;8.034;2023-06-10T11:15:45;4.18;;;3.13;;
32876;SDS011;19226;51.600;8.034;2023-06-10T11:18:35;7.78;;;3.10;;
32876;SDS011;19226;51.600;8.034;2023-06-10T11:21:23;4.65;;;2.65;;
32876;SDS011;19226;51.600;8.034;2023-06-10T11:24:12;3.50;;;3.08;;
32876;SDS011;19226;51.600;8.034;2023-06-10T11:32:50;4.85;;;3.50;;
32876;SDS011;19226;51.600;8.034;2023-06-10T11:35:36;35.83;;;7.00;;
32876;SDS011;19226;51.600;8.034;2023-06-10T11:38:21;3.35;;;3.03;;
32876;SDS011;19226;51.600;8.034;2023-06-10T11:41:05;6.80;;;3.75;;
32876;SDS011;19226;51.600;8.034;2023-06-10T11:43:50;19.52;;;4.97;;
32876;SDS011;19226;51.600;8.034;2023-06-10T11:46:35;42.83;;;7.25;;
32876;SDS011;19226;51.600;8.034;2023-06-10T11:49:20;12.63;;;3.60;;
32876;SDS011;19226;51.600;8.034;2023-06-10T11:52:05;12.02;;;3.47;;
32876;SDS011;19226;51.600;8.034;2023-06-10T11:54:56;15.18;;;4.00;;
32876;SDS011;19226;51.600;8.034;2023-06-10T11:57:41;6.70;;;3.42;;
32876;SDS011;19226;51.600;8.034;2023-06-10T12:00:25;9.60;;;4.20;;
32876;SDS011;19226;51.600;8.034;2023-06-10T12:03:10;6.40;;;3.03;;
32876;SDS011;19226;51.600;8.034;2023-06-10T12:05:55;4.97;;;3.05;;
32876;SDS011;19226;51.600;8.034;2023-06-10T12:08:42;6.18;;;3.33;;
32876;SDS011;19226;51.600;8.034;2023-06-10T12:11:27;12.32;;;3.35;;
32876;SDS011;19226;51.600;8.034;2023-06-10T12:14:12;3.63;;;3.03;;
32876;SDS011;19226;51.600;8.034;2023-06-10T12:16:56;6.63;;;3.10;;
32876;SDS011;19226;51.600;8.034;2023-06-10T12:19:41;3.95;;;3.00;;
32876;SDS011;19226;51.600;8.034;2023-06-10T12:22:27;5.15;;;3.08;;
32876;SDS011;19226;51.600;8.034;2023-06-10T12:25:23;5.32;;;3.17;;
32876;SDS011;19226;51.600;8.034;2023-06-10T12:28:10;8.18;;;3.28;;
32876;SDS011;19226;51.600;8.034;2023-06-10T12:31:07;40.80;;;5.88;;
32876;SDS011;19226;51.600;8.034;2023-06-10T12:34:06;12.73;;;4.28;;
32876;SDS011;19226;51.600;8.034;2023-06-10T12:36:52;7.00;;;3.13;;
32876;SDS011;19226;51.600;8.034;2023-06-10T12:39:37;5.90;;;2.95;;
32876;SDS011;19226;51.600;8.034;2023-06-10T12:42:24;5.82;;;3.35;;
32876;SDS011;19226;51.600;8.034;2023-06-10T12:45:09;6.35;;;3.05;;
32876;SDS011;19226;51.600;8.034;2023-06-10T12:48:03;4.68;;;3.30;;
32876;SDS011;19226;51.600;8.034;2023-06-10T12:50:53;4.15;;;3.20;;
32876;SDS011;19226;51.600;8.034;2023-06-10T12:53:38;3.63;;;3.33;;
32876;SDS011;19226;51.600;8.034;2023-06-10T12:56:23;6.72;;;3.67;;
32876;SDS011;19226;51.600;8.034;2023-06-10T12:59:08;6.60;;;3.30;;
32876;SDS011;19226;51.600;8.034;2023-06-10T13:01:55;8.35;;;3.10;;
32876;SDS011;19226;51.600;8.034;2023-06-10T13:04:40;3.33;;;3.03;;
32876;SDS011;19226;51.600;8.034;2023-06-10T13:07:24;6.88;;;3.10;;
32876;SDS011;19226;51.600;8.034;2023-06-10T13:10:09;10.40;;;3.00;;
32876;SDS011;19226;51.600;8.034;2023-06-10T13:12:53;4.10;;;3.28;;
32876;SDS011;19226;51.600;8.034;2023-06-10T13:15:38;5.60;;;3.17;;
32876;SDS011;19226;51.600;8.034;2023-06-10T13:18:22;4.90;;;3.60;;
32876;SDS011;19226;51.600;8.034;2023-06-10T13:21:07;4.25;;;2.95;;
32876;SDS011;19226;51.600;8.034;2023-06-10T13:23:52;5.40;;;3.10;;
32876;SDS011;19226;51.600;8.034;2023-06-10T13:26:36;7.40;;;4.03;;
32876;SDS011;19226;51.600;8.034;2023-06-10T13:29:21;12.75;;;3.70;;
32876;SDS011;19226;51.600;8.034;2023-06-10T13:32:05;5.05;;;3.20;;
32876;SDS011;19226;51.600;8.034;2023-06-10T13:34:50;5.80;;;2.85;;
32876;SDS011;19226;51.600;8.034;2023-06-10T13:37:35;3.30;;;2.65;;
32876;SDS011;19226;51.600;8.034;2023-06-10T13:40:20;3.95;;;2.92;;
32876;SDS011;19226;51.600;8.034;2023-06-10T13:43:05;9.88;;;3.70;;
32876;SDS011;19226;51.600;8.034;2023-06-10T13:45:50;5.18;;;3.00;;
32876;SDS011;19226;51.600;8.034;2023-06-10T13:48:34;10.07;;;3.47;;
32876;SDS011;19226;51.600;8.034;2023-06-10T13:51:19;6.00;;;3.35;;
32876;SDS011;19226;51.600;8.034;2023-06-10T13:54:04;12.00;;;3.03;;
32876;SDS011;19226;51.600;8.034;2023-06-10T13:56:48;3.75;;;3.13;;
32876;SDS011;19226;51.600;8.034;2023-06-10T13:59:33;6.53;;;3.10;;
32876;SDS011;19226;51.600;8.034;2023-06-10T14:02:17;4.88;;;3.10;;
32876;SDS011;19226;51.600;8.034;2023-06-10T14:05:02;5.82;;;2.63;;
32876;SDS011;19226;51.600;8.034;2023-06-10T14:07:46;4.38;;;3.10;;
32876;SDS011;19226;51.600;8.034;2023-06-10T14:10:31;15.80;;;3.30;;
32876;SDS011;19226;51.600;8.034;2023-06-10T14:13:16;3.40;;;3.05;;
32876;SDS011;19226;51.600;8.034;2023-06-10T14:16:00;4.50;;;2.78;;
32876;SDS011;19226;51.600;8.034;2023-06-10T14:18:46;7.05;;;3.05;;
32876;SDS011;19226;51.600;8.034;2023-06-10T14:21:30;5.18;;;2.60;;
32876;SDS011;19226;51.600;8.034;2023-06-10T14:24:15;3.15;;;2.58;;
32876;SDS011;19226;51.600;8.034;2023-06-10T14:27:00;6.82;;;2.90;;
32876;SDS011;19226;51.600;8.034;2023-06-10T14:29:44;5.85;;;3.08;;
32876;SDS011;19226;51.600;8.034;2023-06-10T14:32:29;5.53;;;2.67;;
32876;SDS011;19226;51.600;8.034;2023-06-10T14:35:14;7.65;;;2.83;;
32876;SDS011;19226;51.600;8.034;2023-06-10T14:37:58;2.90;;;2.58;;
32876;SDS011;19226;51.600;8.034;2023-06-10T14:40:43;3.45;;;2.83;;
32876;SDS011;19226;51.600;8.034;2023-06-10T14:43:27;6.28;;;2.97;;
32876;SDS011;19226;51.600;8.034;2023-06-10T14:46:12;3.75;;;2.83;;
32876;SDS011;19226;51.600;8.034;2023-06-10T14:48:56;4.72;;;2.78;;
32876;SDS011;19226;51.600;8.034;2023-06-10T14:51:42;7.40;;;2.80;;
32876;SDS011;19226;51.600;8.034;2023-06-10T14:54:28;3.00;;;2.55;;
32876;SDS011;19226;51.600;8.034;2023-06-10T14:57:13;7.07;;;3.17;;
32876;SDS011;19226;51.600;8.034;2023-06-10T14:59:57;3.10;;;2.80;;
32876;SDS011;19226;51.600;8.034;2023-06-10T15:02:42;7.25;;;3.25;;
32876;SDS011;19226;51.600;8.034;2023-06-10T15:05:27;9.73;;;5.53;;
32876;SDS011;19226;51.600;8.034;2023-06-10T15:08:12;8.82;;;3.95;;
32876;SDS011;19226;51.600;8.034;2023-06-10T15:10:56;6.60;;;3.30;;
32876;SDS011;19226;51.600;8.034;2023-06-10T15:13:41;5.07;;;3.38;;
32876;SDS011;19226;51.600;8.034;2023-06-10T15:16:25;8.95;;;3.83;;
32876;SDS011;19226;51.600;8.034;2023-06-10T15:19:10;4.28;;;3.20;;
32876;SDS011;19226;51.600;8.034;2023-06-10T15:21:55;6.60;;;4.15;;
32876;SDS011;19226;51.600;8.034;2023-06-10T15:24:39;4.80;;;3.08;;
32876;SDS011;19226;51.600;8.034;2023-06-10T15:27:24;7.90;;;3.58;;
32876;SDS011;19226;51.600;8.034;2023-06-10T15:30:08;7.88;;;3.40;;
32876;SDS011;19226;51.600;8.034;2023-06-10T15:32:56;4.70;;;3.35;;
32876;SDS011;19226;51.600;8.034;2023-06-10T15:35:41;5.53;;;3.25;;
32876;SDS011;19226;51.600;8.034;2023-06-10T15:38:26;6.05;;;3.28;;
32876;SDS011;19226;51.600;8.034;2023-06-10T15:41:10;8.63;;;3.10;;
32876;SDS011;19226;51.600;8.034;2023-06-10T15:43:55;5.63;;;3.08;;
32876;SDS011;19226;51.600;8.034;2023-06-10T15:46:39;4.82;;;2.72;;
32876;SDS011;19226;51.600;8.034;2023-06-10T15:49:24;3.55;;;2.90;;
32876;SDS011;19226;51.600;8.034;2023-06-10T15:52:09;4.20;;;2.92;;
32876;SDS011;19226;51.600;8.034;2023-06-10T15:54:53;4.75;;;2.80;;
32876;SDS011;19226;51.600;8.034;2023-06-10T15:57:38;10.38;;;3.17;;
32876;SDS011;19226;51.600;8.034;2023-06-10T16:00:22;4.43;;;3.00;;
32876;SDS011;19226;51.600;8.034;2023-06-10T16:03:07;11.15;;;3.60;;
32876;SDS011;19226;51.600;8.034;2023-06-10T16:05:51;5.63;;;3.35;;
32876;SDS011;19226;51.600;8.034;2023-06-10T16:08:36;5.57;;;3.30;;
32876;SDS011;19226;51.600;8.034;2023-06-10T16:11:21;5.00;;;3.60;;
32876;SDS011;19226;51.600;8.034;2023-06-10T16:14:06;6.15;;;3.35;;
32876;SDS011;19226;51.600;8.034;2023-06-10T16:16:50;3.33;;;2.92;;
32876;SDS011;19226;51.600;8.034;2023-06-10T16:19:35;18.15;;;7.28;;
32876;SDS011;19226;51.600;8.034;2023-06-10T16:22:19;8.77;;;5.85;;
32876;SDS011;19226;51.600;8.034;2023-06-10T16:25:04;13.52;;;8.93;;
32876;SDS011;19226;51.600;8.034;2023-06-10T16:27:49;7.10;;;5.93;;
32876;SDS011;19226;51.600;8.034;2023-06-10T16:30:33;12.23;;;8.02;;
32876;SDS011;19226;51.600;8.034;2023-06-10T16:33:18;43.80;;;26.23;;
32876;SDS011;19226;51.600;8.034;2023-06-10T16:36:03;19.88;;;12.65;;
32876;SDS011;19226;51.600;8.034;2023-06-10T16:38:47;11.90;;;5.82;;
32876;SDS011;19226;51.600;8.034;2023-06-10T16:41:32;39.30;;;25.45;;
32876;SDS011;19226;51.600;8.034;2023-06-10T16:44:17;12.00;;;6.82;;
32876;SDS011;19226;51.600;8.034;2023-06-10T16:47:01;13.15;;;6.47;;
32876;SDS011;19226;51.600;8.034;2023-06-10T16:49:46;12.30;;;7.72;;
32876;SDS011;19226;51.600;8.034;2023-06-10T16:52:31;17.35;;;11.43;;
32876;SDS011;19226;51.600;8.034;2023-06-10T16:55:15;16.83;;;9.93;;